createdAt,value
2023-04-14T00:00:10.396Z,94.85
2023-04-14T00:01:10.949Z,95.06
2023-04-14T00:02:11.505Z,95.37
2023-04-14T00:03:12.314Z,95.99
2023-04-14T00:04:12.561Z,96.72
2023-04-14T00:05:12.656Z,97.17
2023-04-14T00:06:13.172Z,97.49
2023-04-14T00:07:13.687Z,97.90
2023-04-14T00:08:14.198Z,98.11
2023-04-14T00:09:14.716Z,98.21
2023-04-14T00:10:15.179Z,97.90
2023-04-14T00:11:15.613Z,97.69
2023-04-14T00:12:16.109Z,98.11
2023-04-14T00:13:16.603Z,97.90
2023-04-14T00:14:17.086Z,98.21
2023-04-14T00:15:17.565Z,98.32
2023-04-14T00:16:18.114Z,98.11
2023-04-14T00:17:18.971Z,98.42
2023-04-14T00:18:19.111Z,98.07
2023-04-14T00:19:19.745Z,97.86
2023-04-14T00:20:20.249Z,97.86
2023-04-14T00:21:20.743Z,97.59
2023-04-14T00:22:21.221Z,97.38
2023-04-14T00:23:21.685Z,97.07
2023-04-14T00:24:22.117Z,96.97
2023-04-14T00:25:22.582Z,96.76
2023-04-14T00:26:23.031Z,96.76
2023-04-14T00:27:23.465Z,96.55
2023-04-14T00:28:23.934Z,96.24
2023-04-14T00:29:24.378Z,96.45
2023-04-14T00:30:24.814Z,96.03
2023-04-14T00:31:25.337Z,96.03
2023-04-14T00:32:25.845Z,96.24
2023-04-14T00:33:26.357Z,97.17
2023-04-14T00:34:26.824Z,96.72
2023-04-14T00:35:27.327Z,96.30
2023-04-14T00:36:27.806Z,95.89
2023-04-14T00:37:28.274Z,95.43
2023-04-14T00:38:28.745Z,95.01
2023-04-14T00:39:29.242Z,95.01
2023-04-14T00:40:29.741Z,95.32
2023-04-14T00:41:30.239Z,95.43
2023-04-14T00:42:30.740Z,95.22
2023-04-14T00:43:31.249Z,95.01
2023-04-14T00:44:31.735Z,94.81
2023-04-14T00:45:32.229Z,94.97
2023-04-14T00:46:32.769Z,95.18
2023-04-14T00:47:33.326Z,95.18
2023-04-14T00:48:33.863Z,95.12
2023-04-14T00:49:34.373Z,95.22
2023-04-14T00:50:34.844Z,95.84
2023-04-14T00:51:35.336Z,96.15
2023-04-14T00:52:35.829Z,95.95
2023-04-14T00:53:36.311Z,95.39
2023-04-14T00:54:36.792Z,94.91
2023-04-14T00:55:37.267Z,95.22
2023-04-14T00:56:37.731Z,95.68
2023-04-14T00:57:38.184Z,96.05
2023-04-14T00:58:38.695Z,95.95
2023-04-14T00:59:39.187Z,95.64
2023-04-14T01:00:39.659Z,95.39
2023-04-14T01:01:40.179Z,95.43
2023-04-14T01:02:41.156Z,95.18
2023-04-14T01:03:41.556Z,94.91
2023-04-14T01:04:52.551Z,95.12
2023-04-14T01:05:41.738Z,95.22
2023-04-14T01:06:42.242Z,95.28
2023-04-14T01:07:42.735Z,95.32
2023-04-14T01:08:43.240Z,95.43
2023-04-14T01:09:43.753Z,95.53
2023-04-14T01:10:44.245Z,95.64
2023-04-14T01:11:44.727Z,95.53
2023-04-14T01:12:45.220Z,95.43
2023-04-14T01:13:45.688Z,95.43
2023-04-14T01:14:46.168Z,95.43
2023-04-14T01:15:46.671Z,95.28
2023-04-14T01:16:47.173Z,95.07
2023-04-14T01:17:47.710Z,94.76
2023-04-14T01:18:48.236Z,94.45
2023-04-14T01:19:48.724Z,94.45
2023-04-14T01:20:49.215Z,94.70
2023-04-14T01:21:49.698Z,94.91
2023-04-14T01:22:50.178Z,94.81
2023-04-14T01:23:51.674Z,94.81
2023-04-14T01:24:50.958Z,94.91
2023-04-14T01:25:51.454Z,94.56
2023-04-14T01:26:51.881Z,93.93
2023-04-14T01:27:52.315Z,94.08
2023-04-14T01:28:52.806Z,94.18
2023-04-14T01:29:53.271Z,94.35
2023-04-14T01:30:53.741Z,94.04
2023-04-14T01:31:54.240Z,94.04
2023-04-14T01:32:54.793Z,93.52
2023-04-14T01:33:55.278Z,93.52
2023-04-14T01:34:55.757Z,92.90
2023-04-14T01:35:56.221Z,92.90
2023-04-14T01:36:56.670Z,92.90
2023-04-14T01:37:57.115Z,93.21
2023-04-14T01:38:57.660Z,93.21
2023-04-14T01:39:58.180Z,92.94
2023-04-14T01:40:58.620Z,93.25
2023-04-14T01:41:59.063Z,93.98
2023-04-14T01:42:59.510Z,93.91
2023-04-14T01:43:59.964Z,94.74
2023-04-14T01:45:00.427Z,94.85
2023-04-14T01:46:00.949Z,95.06
2023-04-14T01:47:01.438Z,94.74
2023-04-14T01:48:01.950Z,94.49
2023-04-14T01:49:02.711Z,94.08
2023-04-14T01:50:02.743Z,94.12
2023-04-14T01:51:03.183Z,94.33
2023-04-14T01:52:03.609Z,94.49
2023-04-14T01:53:04.041Z,94.64
2023-04-14T01:54:04.509Z,95.16
2023-04-14T01:55:04.970Z,95.37
2023-04-14T01:56:05.411Z,95.62
2023-04-14T01:57:05.838Z,95.99
2023-04-14T01:58:06.277Z,95.72
2023-04-14T01:59:06.705Z,96.03
2023-04-14T02:00:07.125Z,96.14
2023-04-14T02:01:07.664Z,96.45
2023-04-14T02:02:08.191Z,96.86
2023-04-14T02:03:08.714Z,96.45
2023-04-14T02:04:09.212Z,96.45
2023-04-14T02:05:09.663Z,96.66
2023-04-14T02:06:10.095Z,96.55
2023-04-14T02:07:10.510Z,96.81
2023-04-14T02:08:10.955Z,96.66
2023-04-14T02:09:11.370Z,96.60
2023-04-14T02:10:11.794Z,96.70
2023-04-14T02:11:12.238Z,96.76
2023-04-14T02:12:12.704Z,96.03
2023-04-14T02:13:13.170Z,95.93
2023-04-14T02:14:13.610Z,95.93
2023-04-14T02:15:14.048Z,95.93
2023-04-14T02:16:14.514Z,96.03
2023-04-14T02:17:14.966Z,96.24
2023-04-14T02:18:15.402Z,96.34
2023-04-14T02:19:15.828Z,96.29
2023-04-14T02:20:16.262Z,96.19
2023-04-14T02:21:16.687Z,96.39
2023-04-14T02:22:17.136Z,96.50
2023-04-14T02:23:17.576Z,96.39
2023-04-14T02:24:17.995Z,96.39
2023-04-14T02:25:18.433Z,96.60
2023-04-14T02:26:18.863Z,96.60
2023-04-14T02:27:19.300Z,96.50
2023-04-14T02:28:19.738Z,96.19
2023-04-14T02:29:20.168Z,95.87
2023-04-14T02:30:20.590Z,95.36
2023-04-14T02:31:21.119Z,95.00
2023-04-14T02:32:21.144Z,94.68
2023-04-14T02:33:21.644Z,94.73
2023-04-14T02:34:22.100Z,94.37
2023-04-14T02:35:22.524Z,94.32
2023-04-14T02:36:22.946Z,94.73
2023-04-14T02:37:23.392Z,94.94
2023-04-14T02:38:23.918Z,94.94
2023-04-14T02:39:24.462Z,95.15
2023-04-14T02:40:24.897Z,95.04
2023-04-14T02:41:25.341Z,94.94
2023-04-14T02:42:25.785Z,94.79
2023-04-14T02:43:26.235Z,94.68
2023-04-14T02:44:26.678Z,95.00
2023-04-14T02:45:27.116Z,94.89
2023-04-14T02:46:27.584Z,94.48
2023-04-14T02:47:28.067Z,94.84
2023-04-14T02:48:28.484Z,95.46
2023-04-14T02:49:28.913Z,96.02
2023-04-14T02:50:29.322Z,95.98
2023-04-14T02:51:29.753Z,96.19
2023-04-14T02:52:30.192Z,96.19
2023-04-14T02:53:30.620Z,95.77
2023-04-14T02:54:31.035Z,95.25
2023-04-14T02:55:31.479Z,95.15
2023-04-14T02:56:31.966Z,95.15
2023-04-14T02:57:32.422Z,95.04
2023-04-14T02:58:32.853Z,94.84
2023-04-14T02:59:33.281Z,95.29
2023-04-14T03:00:33.736Z,95.61
2023-04-14T03:01:34.284Z,95.92
2023-04-14T03:02:34.821Z,95.87
2023-04-14T03:03:35.442Z,95.56
2023-04-14T03:04:35.428Z,95.46
2023-04-14T03:05:35.929Z,95.36
2023-04-14T03:06:36.378Z,95.15
2023-04-14T03:07:36.829Z,94.94
2023-04-14T03:08:37.284Z,95.25
2023-04-14T03:09:37.723Z,95.36
2023-04-14T03:10:38.156Z,95.67
2023-04-14T03:11:38.593Z,95.50
2023-04-14T03:12:39.022Z,95.36
2023-04-14T03:13:39.455Z,95.46
2023-04-14T03:14:39.894Z,95.50
2023-04-14T03:15:40.408Z,95.61
2023-04-14T03:16:40.855Z,95.61
2023-04-14T03:17:41.348Z,95.56
2023-04-14T03:18:41.789Z,95.67
2023-04-14T03:19:42.238Z,95.36
2023-04-14T03:20:42.735Z,95.04
2023-04-14T03:21:43.171Z,95.25
2023-04-14T03:22:43.721Z,95.36
2023-04-14T03:23:44.138Z,95.81
2023-04-14T03:24:44.650Z,95.67
2023-04-14T03:25:45.097Z,96.02
2023-04-14T03:26:45.518Z,96.02
2023-04-14T03:27:45.963Z,96.23
2023-04-14T03:28:46.516Z,96.02
2023-04-14T03:29:46.937Z,95.81
2023-04-14T03:30:47.346Z,96.02
2023-04-14T03:31:47.832Z,96.02
2023-04-14T03:32:48.360Z,95.81
2023-04-14T03:33:48.829Z,95.92
2023-04-14T03:34:49.300Z,96.02
2023-04-14T03:35:49.736Z,96.23
2023-04-14T03:36:50.180Z,96.64
2023-04-14T03:37:50.605Z,96.44
2023-04-14T03:38:51.043Z,96.33
2023-04-14T03:39:51.477Z,96.23
2023-04-14T03:40:51.945Z,95.71
2023-04-14T03:41:52.403Z,95.61
2023-04-14T03:42:52.855Z,95.61
2023-04-14T03:43:53.323Z,95.92
2023-04-14T03:44:53.817Z,96.02
2023-04-14T03:45:54.305Z,95.92
2023-04-14T03:46:54.802Z,95.92
2023-04-14T03:47:55.221Z,96.17
2023-04-14T03:48:55.716Z,96.27
2023-04-14T03:49:56.158Z,96.48
2023-04-14T03:50:56.633Z,96.69
2023-04-14T03:51:57.177Z,96.58
2023-04-14T03:52:57.702Z,96.52
2023-04-14T03:53:58.339Z,96.52
2023-04-14T03:54:58.891Z,96.83
2023-04-14T03:55:59.438Z,97.00
2023-04-14T03:56:59.962Z,96.69
2023-04-14T03:58:00.500Z,96.37
2023-04-14T03:59:01.173Z,95.86
2023-04-14T04:00:01.289Z,95.96
2023-04-14T04:01:01.814Z,95.96
2023-04-14T04:02:02.387Z,95.44
2023-04-14T04:03:03.078Z,95.69
2023-04-14T04:04:03.228Z,95.90
2023-04-14T04:05:03.318Z,96.21
2023-04-14T04:06:03.886Z,96.31
2023-04-14T04:07:04.375Z,96.11
2023-04-14T04:08:04.821Z,96.00
2023-04-14T04:09:05.276Z,96.31
2023-04-14T04:10:05.734Z,96.11
2023-04-14T04:11:06.249Z,96.11
2023-04-14T04:12:06.781Z,96.00
2023-04-14T04:13:07.333Z,96.21
2023-04-14T04:14:07.866Z,96.52
2023-04-14T04:15:08.432Z,97.45
2023-04-14T04:16:09.009Z,97.93
2023-04-14T04:17:09.618Z,98.45
2023-04-14T04:18:10.204Z,98.86
2023-04-14T04:19:11.273Z,98.91
2023-04-14T04:20:11.188Z,99.22
2023-04-14T04:21:11.766Z,99.18
2023-04-14T04:22:12.367Z,99.18
2023-04-14T04:23:12.927Z,99.28
2023-04-14T04:24:13.531Z,99.28
2023-04-14T04:25:14.129Z,99.28
2023-04-14T04:26:14.746Z,99.22
2023-04-14T04:27:26.664Z,99.38
2023-04-14T04:28:15.569Z,99.43
2023-04-14T04:29:16.145Z,99.49
2023-04-14T04:30:16.713Z,99.49
2023-04-14T04:31:17.264Z,99.28
2023-04-14T04:32:17.961Z,98.97
2023-04-14T04:33:18.079Z,98.97
2023-04-14T04:34:18.655Z,99.07
2023-04-14T04:35:19.232Z,99.28
2023-04-14T04:36:19.803Z,99.38
2023-04-14T04:37:20.412Z,99.28
2023-04-14T04:38:21.000Z,99.12
2023-04-14T04:39:21.577Z,99.18
2023-04-14T04:40:22.164Z,99.12
2023-04-14T04:41:22.760Z,99.07
2023-04-14T04:42:23.355Z,99.07
2023-04-14T04:43:23.904Z,98.97
2023-04-14T04:44:24.458Z,99.07
2023-04-14T04:45:25.002Z,99.07
2023-04-14T04:46:25.564Z,98.86
2023-04-14T04:47:26.206Z,98.45
2023-04-14T04:48:26.239Z,98.66
2023-04-14T04:49:26.818Z,98.86
2023-04-14T04:50:27.404Z,98.86
2023-04-14T04:51:27.986Z,99.24
2023-04-14T04:52:28.572Z,99.44
2023-04-14T04:53:29.125Z,99.13
2023-04-14T04:54:29.675Z,98.93
2023-04-14T04:55:30.213Z,98.76
2023-04-14T04:56:30.751Z,98.66
2023-04-14T04:57:31.302Z,98.66
2023-04-14T04:58:31.716Z,98.76
2023-04-14T04:59:32.261Z,98.61
2023-04-14T05:00:32.821Z,98.20
2023-04-14T05:01:33.375Z,97.89
2023-04-14T05:02:34.004Z,97.58
2023-04-14T05:03:34.080Z,97.78
2023-04-14T05:04:34.651Z,97.58
2023-04-14T05:05:35.212Z,97.53
2023-04-14T05:06:35.799Z,97.33
2023-04-14T05:07:36.354Z,97.12
2023-04-14T05:08:36.929Z,97.22
2023-04-14T05:09:37.500Z,96.70
2023-04-14T05:10:38.125Z,96.85
2023-04-14T05:11:38.697Z,97.37
2023-04-14T05:12:39.240Z,97.78
2023-04-14T05:13:39.789Z,98.03
2023-04-14T05:14:40.350Z,98.55
2023-04-14T05:15:40.917Z,98.86
2023-04-14T05:16:41.463Z,98.66
2023-04-14T05:17:42.038Z,98.81
2023-04-14T05:18:42.577Z,99.18
2023-04-14T05:19:43.141Z,99.24
2023-04-14T05:20:43.684Z,98.99
2023-04-14T05:21:44.251Z,98.36
2023-04-14T05:22:44.818Z,97.74
2023-04-14T05:23:45.377Z,97.43
2023-04-14T05:24:45.917Z,97.33
2023-04-14T05:25:47.531Z,97.58
2023-04-14T05:26:57.709Z,98.20
2023-04-14T05:27:47.290Z,98.30
2023-04-14T05:28:47.842Z,98.30
2023-04-14T05:29:48.366Z,98.72
2023-04-14T05:30:48.921Z,98.82
2023-04-14T05:31:49.555Z,99.07
2023-04-14T05:32:50.179Z,99.24
2023-04-14T05:33:50.752Z,99.19
2023-04-14T05:34:51.288Z,98.88
2023-04-14T05:35:51.843Z,98.42
2023-04-14T05:36:52.401Z,98.16
2023-04-14T05:37:52.953Z,97.59
2023-04-14T05:38:53.522Z,97.17
2023-04-14T05:39:54.056Z,96.66
2023-04-14T05:40:54.597Z,96.76
2023-04-14T05:41:55.145Z,97.17
2023-04-14T05:42:57.040Z,96.97
2023-04-14T05:43:55.979Z,97.38
2023-04-14T05:44:56.523Z,97.17
2023-04-14T05:45:57.081Z,97.07
2023-04-14T05:46:57.753Z,97.07
2023-04-14T05:47:57.865Z,97.17
2023-04-14T05:48:58.474Z,96.41
2023-04-14T05:49:58.524Z,96.24
2023-04-14T05:50:59.103Z,96.41
2023-04-14T05:51:59.649Z,96.03
2023-04-14T05:53:00.217Z,95.99
2023-04-14T05:54:01.080Z,95.89
2023-04-14T05:55:01.317Z,95.89
2023-04-14T05:56:01.879Z,95.78
2023-04-14T05:57:02.458Z,95.53
2023-04-14T05:58:03.026Z,94.91
2023-04-14T05:59:03.596Z,94.29
2023-04-14T06:00:04.149Z,93.66
2023-04-14T06:01:04.705Z,94.04
2023-04-14T06:02:05.358Z,93.62
2023-04-14T06:03:05.605Z,94.08
2023-04-14T06:04:06.460Z,94.12
2023-04-14T06:05:06.566Z,94.43
2023-04-14T06:06:06.630Z,94.64
2023-04-14T06:07:07.193Z,94.95
2023-04-14T06:08:07.768Z,94.95
2023-04-14T06:09:08.340Z,95.06
2023-04-14T06:10:08.907Z,94.70
2023-04-14T06:11:09.461Z,94.18
2023-04-14T06:12:10.011Z,93.98
2023-04-14T06:13:10.568Z,94.18
2023-04-14T06:14:11.139Z,94.04
2023-04-14T06:15:11.701Z,93.31
2023-04-14T06:16:12.281Z,92.11
2023-04-14T06:17:12.852Z,93.08
2023-04-14T06:18:13.421Z,94.02
2023-04-14T06:19:13.997Z,94.33
2023-04-14T06:20:14.585Z,94.23
2023-04-14T06:21:15.154Z,94.17
2023-04-14T06:22:15.716Z,94.43
2023-04-14T06:23:16.270Z,94.43
2023-04-14T06:24:16.813Z,94.23
2023-04-14T06:25:17.384Z,94.02
2023-04-14T06:26:17.967Z,93.91
2023-04-14T06:27:18.513Z,93.91
2023-04-14T06:28:19.059Z,94.12
2023-04-14T06:29:19.607Z,93.50
2023-04-14T06:30:20.189Z,93.40
2023-04-14T06:31:20.846Z,93.96
2023-04-14T06:32:21.251Z,93.81
2023-04-14T06:33:21.384Z,93.91
2023-04-14T06:34:21.940Z,94.43
2023-04-14T06:35:32.436Z,94.39
2023-04-14T06:36:22.738Z,93.52
2023-04-14T06:37:23.324Z,93.25
2023-04-14T06:38:23.900Z,93.25
2023-04-14T06:39:24.474Z,93.19
2023-04-14T06:40:25.041Z,93.56
2023-04-14T06:41:25.610Z,93.56
2023-04-14T06:42:26.202Z,93.41
2023-04-14T06:43:26.774Z,92.90
2023-04-14T06:44:27.339Z,92.49
2023-04-14T06:45:27.897Z,92.28
2023-04-14T06:46:28.610Z,92.03
2023-04-14T06:47:28.675Z,91.93
2023-04-14T06:48:29.243Z,91.93
2023-04-14T06:49:29.823Z,91.82
2023-04-14T06:50:30.390Z,91.16
2023-04-14T06:51:30.967Z,90.44
2023-04-14T06:52:31.546Z,90.58
2023-04-14T06:53:32.101Z,90.99
2023-04-14T06:54:32.661Z,92.07
2023-04-14T06:55:33.215Z,93.00
2023-04-14T06:56:33.779Z,93.52
2023-04-14T06:57:34.353Z,93.52
2023-04-14T06:58:35.002Z,94.04
2023-04-14T06:59:35.020Z,93.62
2023-04-14T07:00:35.577Z,93.31
2023-04-14T07:01:36.189Z,93.98
2023-04-14T07:02:36.854Z,93.56
2023-04-14T07:03:37.037Z,93.46
2023-04-14T07:04:37.165Z,93.56
2023-04-14T07:05:37.226Z,93.52
2023-04-14T07:06:37.784Z,92.80
2023-04-14T07:07:38.331Z,92.74
2023-04-14T07:08:38.880Z,93.04
2023-04-14T07:09:39.485Z,93.10
2023-04-14T07:10:40.831Z,93.10
2023-04-14T07:11:40.331Z,92.24
2023-04-14T07:12:40.878Z,92.65
2023-04-14T07:13:41.423Z,92.50
2023-04-14T07:14:41.987Z,92.36
2023-04-14T07:15:42.606Z,91.01
2023-04-14T07:16:43.196Z,89.77
2023-04-14T07:17:43.846Z,89.56
2023-04-14T07:18:44.422Z,89.56
2023-04-14T07:19:44.959Z,89.32
2023-04-14T07:20:45.467Z,83.49
2023-04-14T07:21:45.977Z,81.07
2023-04-14T07:22:46.497Z,79.94
2023-04-14T07:23:47.014Z,80.35
2023-04-14T07:24:47.548Z,80.62
2023-04-14T07:25:48.079Z,80.32
2023-04-14T07:26:48.583Z,80.11
2023-04-14T07:28:02.136Z,79.28
2023-04-14T07:28:49.245Z,79.55
2023-04-14T07:29:49.733Z,79.35
2023-04-14T07:30:50.320Z,79.97
2023-04-14T07:31:51.006Z,78.63
2023-04-14T07:32:51.059Z,78.42
2023-04-14T07:33:51.550Z,79.35
2023-04-14T07:34:52.058Z,80.96
2023-04-14T07:36:02.006Z,79.79
2023-04-14T07:36:52.744Z,78.45
2023-04-14T07:37:53.206Z,78.62
2023-04-14T16:00:57.368Z,38.16
2023-04-14T16:01:58.032Z,37.88
2023-04-14T16:02:58.181Z,38.18
2023-04-14T16:03:58.232Z,39.82
2023-04-14T16:04:58.781Z,37.42
2023-04-14T16:05:59.300Z,38.98
2023-04-14T16:06:59.817Z,40.59
2023-04-14T16:08:00.325Z,40.65
2023-04-14T16:09:01.013Z,39.42
2023-04-14T16:10:01.060Z,38.87
2023-04-14T16:11:01.629Z,38.37
2023-04-14T16:12:02.150Z,38.46
2023-04-14T16:13:02.670Z,38.48
2023-04-14T16:14:03.509Z,39.70
2023-04-14T16:15:03.632Z,41.00
2023-04-14T16:16:04.157Z,41.42
2023-04-14T16:17:04.659Z,41.32
2023-04-14T16:18:05.159Z,40.09
2023-04-14T16:19:05.669Z,41.00
2023-04-14T16:20:06.192Z,40.47
2023-04-14T16:21:06.706Z,40.35
2023-04-14T16:22:07.217Z,40.98
2023-04-14T16:23:07.721Z,41.02
2023-04-14T16:24:08.286Z,41.52
2023-04-14T16:25:08.817Z,41.86
2023-04-14T16:26:09.326Z,42.66
2023-04-14T16:27:09.836Z,42.15
2023-04-14T16:28:10.347Z,41.74
2023-04-14T16:29:10.891Z,41.14
2023-04-14T16:30:11.379Z,41.66
2023-04-14T16:31:11.890Z,42.15
2023-04-14T16:32:12.388Z,41.95
2023-04-14T16:33:13.200Z,43.18
2023-04-14T16:34:13.284Z,43.29
2023-04-14T16:35:13.816Z,42.68
2023-04-14T16:36:14.332Z,43.00
2023-04-14T16:37:14.832Z,42.98
2023-04-14T16:38:15.332Z,42.57
2023-04-14T16:39:15.858Z,41.38
2023-04-14T16:40:16.344Z,42.09
2023-04-14T16:41:16.859Z,41.48
2023-04-14T16:42:17.350Z,41.60
2023-04-14T16:43:17.869Z,41.30
2023-04-14T16:44:18.401Z,41.09
2023-04-14T16:45:19.728Z,41.60
2023-04-14T16:46:19.088Z,42.41
2023-04-14T16:47:20.621Z,42.00
2023-04-14T16:48:19.918Z,42.11
2023-04-14T16:49:20.407Z,42.21
2023-04-14T16:50:20.897Z,42.31
2023-04-14T16:51:21.438Z,42.31
2023-04-14T16:52:21.981Z,42.63
2023-04-14T16:53:22.504Z,41.82
2023-04-14T16:54:23.091Z,43.16
2023-04-14T16:55:23.664Z,43.38
2023-04-14T16:56:24.192Z,44.30
2023-04-14T16:57:24.726Z,43.90
2023-04-14T16:58:25.246Z,44.30
2023-04-14T16:59:25.782Z,44.73
2023-04-14T17:00:26.284Z,45.34
2023-04-14T17:01:26.894Z,47.06
2023-04-14T17:02:27.083Z,46.56
2023-04-14T17:03:27.261Z,46.36
2023-04-14T17:04:27.515Z,46.15
2023-04-14T17:05:27.667Z,46.89
2023-04-14T17:06:28.199Z,47.29
2023-04-14T17:07:28.674Z,46.40
2023-04-14T17:08:29.163Z,46.91
2023-04-14T17:09:29.645Z,47.82
2023-04-14T17:10:30.122Z,47.72
2023-04-14T17:11:30.627Z,47.92
2023-04-14T17:12:31.138Z,47.11
2023-04-14T17:13:31.710Z,47.95
2023-04-14T17:14:32.178Z,48.99
2023-04-14T17:15:32.680Z,49.09
2023-04-14T17:16:33.305Z,48.66
2023-04-14T17:17:33.284Z,49.07
2023-04-14T17:18:33.816Z,48.68
2023-04-14T17:19:34.402Z,49.19
2023-04-14T17:20:34.915Z,49.09
2023-04-14T17:21:35.423Z,49.93
2023-04-14T17:22:35.920Z,49.11
2023-04-14T17:23:36.427Z,49.21
2023-04-14T17:24:36.935Z,49.60
2023-04-14T17:25:37.441Z,49.32
2023-04-14T17:26:37.983Z,49.73
2023-04-14T17:27:38.538Z,49.62
2023-04-14T17:28:39.057Z,50.13
2023-04-14T17:29:39.590Z,49.93
2023-04-14T17:30:40.108Z,50.54
2023-04-14T17:31:40.653Z,50.54
2023-04-14T17:32:41.243Z,50.03
2023-04-14T17:33:41.805Z,51.56
2023-04-14T17:34:42.329Z,51.38
2023-04-14T17:35:42.838Z,51.81
2023-04-14T17:36:43.351Z,52.96
2023-04-14T17:37:43.880Z,54.08
2023-04-14T17:38:44.409Z,52.34
2023-04-14T17:39:44.943Z,52.86
2023-04-14T17:40:45.485Z,53.34
2023-04-14T17:41:46.063Z,53.57
2023-04-14T17:42:46.598Z,52.25
2023-04-14T17:43:47.134Z,53.57
2023-04-14T17:44:47.666Z,53.27
2023-04-14T17:45:48.235Z,53.16
2023-04-14T17:46:48.801Z,53.98
2023-04-14T17:47:49.365Z,53.77
2023-04-14T17:48:49.934Z,53.98
2023-04-14T17:49:50.460Z,54.41
2023-04-14T17:50:50.989Z,55.13
2023-04-14T17:51:51.507Z,55.02
2023-04-14T17:52:52.143Z,55.74
2023-04-14T17:53:52.776Z,55.63
2023-04-14T17:54:53.404Z,55.23
2023-04-14T17:55:53.923Z,55.63
2023-04-14T17:56:54.453Z,55.33
2023-04-14T17:57:54.993Z,54.61
2023-04-14T17:58:55.542Z,53.59
2023-04-14T17:59:56.134Z,54.21
2023-04-14T18:00:56.727Z,54.82
2023-04-14T18:01:57.315Z,55.15
2023-04-14T18:02:57.900Z,55.66
2023-04-14T18:03:58.481Z,55.79
2023-04-14T18:04:59.079Z,56.61
2023-04-14T18:05:59.633Z,56.81
2023-04-14T18:07:00.208Z,57.73
2023-04-14T18:08:00.786Z,55.99
2023-04-14T18:09:01.540Z,56.74
2023-04-14T18:10:01.698Z,56.81
2023-04-14T18:11:02.247Z,57.43
2023-04-14T18:12:02.769Z,57.43
2023-04-14T18:13:03.280Z,56.81
2023-04-14T18:14:04.313Z,57.35
2023-04-14T18:15:04.051Z,58.37
2023-04-14T18:16:04.593Z,58.61
2023-04-14T18:17:05.229Z,58.61
2023-04-14T18:18:05.808Z,58.09
2023-04-14T18:19:06.375Z,58.40
2023-04-14T18:20:06.907Z,59.12
2023-04-14T18:21:07.430Z,59.76
2023-04-14T18:22:07.953Z,58.81
2023-04-14T18:23:08.488Z,58.63
2023-04-14T18:25:08.133Z,59.55
2023-04-14T18:28:09.308Z,59.86
2023-04-14T18:29:11.015Z,59.86
2023-04-14T18:30:11.570Z,60.27
2023-04-14T18:31:13.546Z,60.37
2023-04-14T18:32:12.601Z,59.86
2023-04-14T18:33:13.163Z,59.76
2023-04-14T18:34:13.691Z,59.96
2023-04-14T18:35:14.248Z,59.76
2023-04-14T18:36:14.794Z,60.58
2023-04-14T18:37:15.343Z,61.29
2023-04-14T18:38:15.897Z,61.09
2023-04-14T18:39:16.463Z,60.88
2023-04-14T18:40:17.105Z,60.68
2023-04-14T18:41:17.645Z,60.58
2023-04-14T18:42:18.186Z,60.88
2023-04-14T18:43:18.727Z,60.47
2023-04-14T18:44:19.282Z,61.19
2023-04-14T18:45:19.817Z,61.60
2023-04-14T18:46:20.420Z,61.80
2023-04-14T18:47:21.024Z,62.55
2023-04-14T18:48:21.561Z,62.52
2023-04-14T18:49:22.151Z,62.55
2023-04-14T18:50:22.706Z,62.14
2023-04-14T18:51:23.262Z,62.21
2023-04-14T18:52:23.880Z,62.24
2023-04-14T18:53:24.422Z,63.17
2023-04-14T18:54:24.975Z,63.06
2023-04-14T18:55:25.505Z,62.85
2023-04-14T18:56:26.167Z,62.85
2023-04-14T18:57:26.742Z,61.93
2023-04-14T18:58:27.332Z,61.93
2023-04-14T18:59:27.910Z,62.04
2023-04-14T19:00:28.480Z,62.76
2023-04-14T19:01:29.046Z,63.50
2023-04-14T19:02:29.723Z,63.40
2023-04-14T19:03:29.829Z,63.70
2023-04-14T19:04:30.478Z,63.40
2023-04-14T19:05:31.127Z,64.01
2023-04-14T19:06:31.672Z,63.50
2023-04-14T19:07:32.253Z,64.14
2023-04-14T19:08:32.900Z,64.86
2023-04-14T19:09:33.503Z,64.45
2023-04-14T19:10:34.082Z,64.45
2023-04-14T19:11:34.651Z,65.17
2023-04-14T19:12:35.216Z,64.25
2023-04-14T19:13:35.805Z,64.32
2023-04-14T19:14:36.365Z,63.94
2023-04-14T19:15:36.918Z,63.84
2023-04-14T19:16:37.512Z,64.56
2023-04-14T19:17:38.101Z,65.07
2023-04-14T19:18:38.656Z,64.76
2023-04-14T19:19:39.201Z,64.89
2023-04-14T19:20:39.727Z,65.00
2023-04-14T19:21:40.259Z,65.51
2023-04-14T19:22:40.835Z,65.00
2023-04-14T19:23:41.389Z,65.20
2023-04-14T19:24:41.910Z,65.10
2023-04-14T19:25:42.451Z,65.61
2023-04-14T19:26:43.000Z,66.36
2023-04-14T19:27:43.666Z,65.74
2023-04-14T19:28:44.237Z,66.36
2023-04-14T19:29:44.774Z,66.97
2023-04-14T19:30:45.294Z,67.38
2023-04-14T19:31:45.844Z,66.97
2023-04-14T19:32:46.460Z,66.74
2023-04-14T19:33:46.991Z,66.56
2023-04-14T19:34:47.507Z,66.97
2023-04-14T19:35:48.021Z,67.18
2023-04-14T19:36:48.532Z,67.49
2023-04-14T19:37:49.056Z,67.69
2023-04-14T19:38:49.628Z,68.34
2023-04-14T19:39:50.182Z,68.13
2023-04-14T19:40:50.729Z,68.34
2023-04-14T19:41:51.237Z,67.21
2023-04-14T19:42:51.735Z,68.03
2023-04-14T19:43:52.295Z,68.78
2023-04-14T19:44:52.816Z,69.32
2023-04-14T19:45:53.326Z,69.53
2023-04-14T19:46:53.879Z,70.18
2023-04-14T19:47:54.452Z,71.00
2023-04-14T19:48:55.018Z,71.11
2023-04-14T19:49:55.569Z,70.25
2023-04-14T19:50:56.078Z,69.43
2023-04-14T19:51:56.618Z,68.27
2023-04-14T19:52:57.152Z,69.02
2023-04-14T19:53:57.672Z,70.90
2023-04-14T19:54:58.318Z,72.89
2023-04-14T19:55:58.838Z,73.16
2023-04-14T19:56:59.393Z,73.68
2023-04-14T19:57:59.972Z,73.36
2023-04-14T19:59:00.709Z,73.78
2023-04-14T20:00:00.839Z,73.23
2023-04-14T20:01:01.473Z,73.23
2023-04-14T20:02:02.135Z,72.68
2023-04-14T20:03:02.758Z,72.47
2023-04-14T20:04:09.878Z,72.47
2023-04-14T20:05:03.541Z,71.79
2023-04-14T20:06:04.083Z,71.58
2023-04-14T20:07:04.614Z,71.48
2023-04-14T20:08:05.143Z,72.13
2023-04-14T20:09:05.678Z,73.40
2023-04-14T20:10:06.201Z,73.61
2023-04-14T20:11:06.735Z,74.22
2023-04-14T20:12:07.256Z,74.63
2023-04-14T20:13:07.785Z,74.53
2023-04-14T20:14:08.320Z,73.81
2023-04-14T20:15:08.848Z,72.54
2023-04-14T20:16:09.398Z,71.92
2023-04-14T20:17:09.940Z,72.13
2023-04-14T20:18:10.465Z,72.37
2023-04-14T20:19:11.687Z,72.99
2023-04-14T20:20:11.648Z,75.01
2023-04-14T20:21:12.227Z,76.49
2023-04-14T20:22:12.781Z,77.66
2023-04-14T20:23:13.321Z,77.56
2023-04-14T20:24:13.840Z,77.15
2023-04-14T20:25:14.381Z,76.70
2023-04-14T20:26:14.897Z,76.90
2023-04-14T20:27:15.430Z,77.11
2023-04-14T20:28:15.963Z,77.52
2023-04-14T20:29:16.488Z,77.42
2023-04-14T20:30:17.027Z,77.31
2023-04-14T20:31:17.619Z,77.31
2023-04-14T20:32:18.215Z,77.31
2023-04-14T20:33:18.789Z,77.42
2023-04-14T20:34:19.343Z,78.04
2023-04-14T20:35:19.924Z,78.69
2023-04-14T20:36:20.478Z,79.04
2023-04-14T20:37:21.017Z,79.69
2023-04-14T20:38:21.573Z,79.55
2023-04-14T20:39:22.122Z,79.66
2023-04-14T20:40:22.670Z,79.76
2023-04-14T20:41:23.199Z,79.55
2023-04-14T20:42:23.735Z,79.55
2023-04-14T20:43:24.277Z,79.66
2023-04-14T20:44:24.818Z,79.35
2023-04-14T20:45:25.435Z,79.31
2023-04-14T20:46:26.071Z,79.25
2023-04-14T20:47:26.735Z,78.73
2023-04-14T20:48:27.314Z,78.38
2023-04-14T20:49:27.851Z,78.21
2023-04-14T20:50:28.443Z,78.31
2023-04-14T20:51:29.015Z,78.73
2023-04-14T20:52:29.564Z,79.25
2023-04-14T20:53:30.211Z,78.94
2023-04-14T20:54:30.781Z,78.42
2023-04-14T20:55:31.319Z,78.01
2023-04-14T20:56:31.910Z,77.76
2023-04-14T20:57:32.450Z,78.21
2023-04-14T20:58:32.978Z,78.52
2023-04-14T20:59:33.521Z,79.83
2023-04-14T21:00:34.401Z,80.76
2023-04-14T21:01:34.471Z,81.11
2023-04-14T21:02:35.210Z,81.52
2023-04-14T21:03:35.403Z,81.67
2023-04-14T21:04:35.514Z,81.87
2023-04-14T21:05:36.066Z,81.73
2023-04-14T21:06:36.636Z,81.32
2023-04-14T21:07:37.179Z,80.35
2023-04-14T21:08:37.720Z,80.70
2023-04-14T21:09:38.273Z,81.25
2023-04-14T21:11:15.835Z,82.29
2023-04-14T21:11:39.059Z,81.87
2023-04-14T21:13:57.808Z,81.25
2023-04-14T21:15:55.568Z,81.91
2023-04-14T21:16:02.122Z,82.88
2023-04-14T21:16:59.309Z,82.88
2023-04-14T21:17:58.332Z,83.09
2023-04-14T21:18:58.903Z,83.09
2023-04-14T21:19:59.467Z,83.85
2023-04-14T21:21:00.018Z,83.29
2023-04-14T21:22:00.562Z,83.29
2023-04-14T21:23:01.113Z,82.60
2023-04-14T21:24:01.661Z,81.67
2023-04-14T21:25:02.251Z,80.49